sensor_id;sensor_type;location;lat;lon;timestamp;P1;durP1;ratioP1;P2;durP2;ratioP2
23222;SDS011;11780;13.904;100.620;2023-07-29T00:02:19;14.13;;;5.85;;
23222;SDS011;11780;13.904;100.620;2023-07-29T00:04:50;10.23;;;6.17;;
23222;SDS011;11780;13.904;100.620;2023-07-29T00:07:38;13.45;;;6.93;;
23222;SDS011;11780;13.904;100.620;2023-07-29T00:10:09;12.83;;;6.50;;
23222;SDS011;11780;13.904;100.620;2023-07-29T00:12:40;18.83;;;6.32;;
23222;SDS011;11780;13.904;100.620;2023-07-29T00:15:11;14.63;;;6.60;;
23222;SDS011;11780;13.904;100.620;2023-07-29T00:17:41;13.73;;;6.72;;
23222;SDS011;11780;13.904;100.620;2023-07-29T00:20:12;9.33;;;5.70;;
23222;SDS011;11780;13.904;100.620;2023-07-29T00:22:42;11.97;;;5.90;;
23222;SDS011;11780;13.904;100.620;2023-07-29T00:25:13;8.47;;;5.63;;
23222;SDS011;11780;13.904;100.620;2023-07-29T00:27:44;16.13;;;5.70;;
23222;SDS011;11780;13.904;100.620;2023-07-29T00:30:14;17.83;;;6.47;;
23222;SDS011;11780;13.904;100.620;2023-07-29T00:32:44;10.73;;;5.85;;
23222;SDS011;11780;13.904;100.620;2023-07-29T00:35:15;12.32;;;5.88;;
23222;SDS011;11780;13.904;100.620;2023-07-29T00:37:45;12.97;;;6.00;;
23222;SDS011;11780;13.904;100.620;2023-07-29T00:40:19;13.83;;;6.10;;
23222;SDS011;11780;13.904;100.620;2023-07-29T00:42:50;12.65;;;6.28;;
23222;SDS011;11780;13.904;100.620;2023-07-29T00:45:21;10.45;;;6.05;;
23222;SDS011;11780;13.904;100.620;2023-07-29T00:47:55;9.35;;;5.70;;
23222;SDS011;11780;13.904;100.620;2023-07-29T00:50:26;15.73;;;6.10;;
23222;SDS011;11780;13.904;100.620;2023-07-29T00:52:59;10.68;;;6.18;;
23222;SDS011;11780;13.904;100.620;2023-07-29T00:55:30;11.85;;;6.75;;
23222;SDS011;11780;13.904;100.620;2023-07-29T00:58:00;13.80;;;7.38;;
23222;SDS011;11780;13.904;100.620;2023-07-29T01:00:32;11.80;;;7.20;;
23222;SDS011;11780;13.904;100.620;2023-07-29T01:03:03;11.25;;;6.93;;
23222;SDS011;11780;13.904;100.620;2023-07-29T01:05:37;9.07;;;6.32;;
23222;SDS011;11780;13.904;100.620;2023-07-29T01:08:27;39.58;;;21.83;;
23222;SDS011;11780;13.904;100.620;2023-07-29T01:17:07;30.60;;;14.88;;
23222;SDS011;11780;13.904;100.620;2023-07-29T01:20:17;27.38;;;13.90;;
23222;SDS011;11780;13.904;100.620;2023-07-29T01:22:43;24.45;;;12.32;;
23222;SDS011;11780;13.904;100.620;2023-07-29T01:25:14;15.32;;;9.48;;
23222;SDS011;11780;13.904;100.620;2023-07-29T01:27:45;15.93;;;9.13;;
23222;SDS011;11780;13.904;100.620;2023-07-29T01:30:17;17.75;;;9.45;;
23222;SDS011;11780;13.904;100.620;2023-07-29T01:35:30;11.25;;;6.65;;
23222;SDS011;11780;13.904;100.620;2023-07-29T01:38:09;11.73;;;6.47;;
23222;SDS011;11780;13.904;100.620;2023-07-29T01:40:50;10.73;;;5.25;;
23222;SDS011;11780;13.904;100.620;2023-07-29T01:43:22;8.52;;;4.78;;
23222;SDS011;11780;13.904;100.620;2023-07-29T01:45:55;9.15;;;4.85;;
23222;SDS011;11780;13.904;100.620;2023-07-29T01:48:26;13.18;;;4.85;;
23222;SDS011;11780;13.904;100.620;2023-07-29T01:51:00;8.88;;;4.93;;
23222;SDS011;11780;13.904;100.620;2023-07-29T01:53:30;7.77;;;4.87;;
23222;SDS011;11780;13.904;100.620;2023-07-29T01:56:01;8.77;;;4.07;;
23222;SDS011;11780;13.904;100.620;2023-07-29T01:58:34;9.80;;;3.75;;
23222;SDS011;11780;13.904;100.620;2023-07-29T02:01:04;8.37;;;3.80;;
23222;SDS011;11780;13.904;100.620;2023-07-29T02:03:35;5.93;;;3.23;;
23222;SDS011;11780;13.904;100.620;2023-07-29T02:06:06;7.17;;;3.67;;
23222;SDS011;11780;13.904;100.620;2023-07-29T02:08:36;7.38;;;4.10;;
23222;SDS011;11780;13.904;100.620;2023-07-29T02:11:09;7.25;;;3.53;;
23222;SDS011;11780;13.904;100.620;2023-07-29T02:13:39;6.73;;;3.73;;
23222;SDS011;11780;13.904;100.620;2023-07-29T02:19:04;4.85;;;3.30;;
23222;SDS011;11780;13.904;100.620;2023-07-29T02:21:36;8.27;;;3.83;;
23222;SDS011;11780;13.904;100.620;2023-07-29T02:24:06;7.73;;;3.57;;
23222;SDS011;11780;13.904;100.620;2023-07-29T02:26:37;5.00;;;2.67;;
23222;SDS011;11780;13.904;100.620;2023-07-29T02:29:07;8.33;;;4.23;;
23222;SDS011;11780;13.904;100.620;2023-07-29T02:31:37;7.32;;;3.80;;
23222;SDS011;11780;13.904;100.620;2023-07-29T02:34:08;7.13;;;3.70;;
23222;SDS011;11780;13.904;100.620;2023-07-29T02:36:38;12.17;;;4.47;;
23222;SDS011;11780;13.904;100.620;2023-07-29T02:39:09;8.25;;;3.40;;
23222;SDS011;11780;13.904;100.620;2023-07-29T02:41:41;9.48;;;3.70;;
23222;SDS011;11780;13.904;100.620;2023-07-29T02:44:11;5.37;;;3.73;;
23222;SDS011;11780;13.904;100.620;2023-07-29T02:46:42;15.13;;;5.37;;
23222;SDS011;11780;13.904;100.620;2023-07-29T02:49:13;24.45;;;11.15;;
23222;SDS011;11780;13.904;100.620;2023-07-29T02:51:45;15.90;;;6.72;;
23222;SDS011;11780;13.904;100.620;2023-07-29T02:54:15;13.80;;;6.03;;
23222;SDS011;11780;13.904;100.620;2023-07-29T02:56:46;6.47;;;4.50;;
23222;SDS011;11780;13.904;100.620;2023-07-29T02:59:16;10.03;;;4.30;;
23222;SDS011;11780;13.904;100.620;2023-07-29T03:01:46;7.50;;;3.77;;
23222;SDS011;11780;13.904;100.620;2023-07-29T03:04:17;8.63;;;3.97;;
23222;SDS011;11780;13.904;100.620;2023-07-29T03:06:47;6.67;;;3.60;;
23222;SDS011;11780;13.904;100.620;2023-07-29T03:09:18;5.27;;;3.10;;
23222;SDS011;11780;13.904;100.620;2023-07-29T03:11:48;6.22;;;3.03;;
23222;SDS011;11780;13.904;100.620;2023-07-29T03:14:21;9.27;;;3.20;;
23222;SDS011;11780;13.904;100.620;2023-07-29T03:16:51;6.70;;;3.20;;
23222;SDS011;11780;13.904;100.620;2023-07-29T03:19:22;6.57;;;3.47;;
23222;SDS011;11780;13.904;100.620;2023-07-29T03:21:52;8.63;;;3.57;;
23222;SDS011;11780;13.904;100.620;2023-07-29T03:24:22;6.85;;;3.40;;
23222;SDS011;11780;13.904;100.620;2023-07-29T03:26:53;7.07;;;3.25;;
23222;SDS011;11780;13.904;100.620;2023-07-29T03:29:24;9.27;;;3.53;;
23222;SDS011;11780;13.904;100.620;2023-07-29T03:31:54;6.87;;;3.03;;
23222;SDS011;11780;13.904;100.620;2023-07-29T03:34:25;5.23;;;3.20;;
23222;SDS011;11780;13.904;100.620;2023-07-29T03:36:55;5.07;;;2.60;;
23222;SDS011;11780;13.904;100.620;2023-07-29T03:39:26;4.97;;;2.70;;
23222;SDS011;11780;13.904;100.620;2023-07-29T03:41:56;8.40;;;2.90;;
23222;SDS011;11780;13.904;100.620;2023-07-29T03:44:27;3.60;;;2.85;;
23222;SDS011;11780;13.904;100.620;2023-07-29T03:46:58;5.47;;;2.83;;
23222;SDS011;11780;13.904;100.620;2023-07-29T03:49:29;5.13;;;2.58;;
23222;SDS011;11780;13.904;100.620;2023-07-29T03:51:59;7.93;;;3.07;;
23222;SDS011;11780;13.904;100.620;2023-07-29T03:54:30;5.78;;;3.40;;
23222;SDS011;11780;13.904;100.620;2023-07-29T03:57:01;15.88;;;8.57;;
23222;SDS011;11780;13.904;100.620;2023-07-29T03:59:31;23.53;;;10.67;;
23222;SDS011;11780;13.904;100.620;2023-07-29T04:02:03;10.75;;;6.32;;
23222;SDS011;11780;13.904;100.620;2023-07-29T04:04:33;65.72;;;21.00;;
23222;SDS011;11780;13.904;100.620;2023-07-29T04:07:08;18.30;;;7.55;;
23222;SDS011;11780;13.904;100.620;2023-07-29T04:09:39;23.08;;;8.13;;
23222;SDS011;11780;13.904;100.620;2023-07-29T04:12:10;16.92;;;5.20;;
23222;SDS011;11780;13.904;100.620;2023-07-29T04:14:40;8.55;;;4.70;;
23222;SDS011;11780;13.904;100.620;2023-07-29T04:17:11;8.53;;;4.70;;
23222;SDS011;11780;13.904;100.620;2023-07-29T04:19:41;7.47;;;3.97;;
23222;SDS011;11780;13.904;100.620;2023-07-29T04:22:12;7.20;;;3.72;;
23222;SDS011;11780;13.904;100.620;2023-07-29T04:25:06;6.53;;;4.00;;
23222;SDS011;11780;13.904;100.620;2023-07-29T04:27:37;4.97;;;3.85;;
23222;SDS011;11780;13.904;100.620;2023-07-29T04:30:07;12.77;;;4.53;;
23222;SDS011;11780;13.904;100.620;2023-07-29T04:32:38;11.70;;;5.18;;
23222;SDS011;11780;13.904;100.620;2023-07-29T04:35:09;8.65;;;4.90;;
23222;SDS011;11780;13.904;100.620;2023-07-29T04:37:40;11.10;;;3.95;;
23222;SDS011;11780;13.904;100.620;2023-07-29T04:40:10;5.57;;;3.00;;
23222;SDS011;11780;13.904;100.620;2023-07-29T04:42:41;6.80;;;3.40;;
23222;SDS011;11780;13.904;100.620;2023-07-29T04:45:11;8.57;;;3.00;;
23222;SDS011;11780;13.904;100.620;2023-07-29T04:47:42;4.43;;;3.00;;
23222;SDS011;11780;13.904;100.620;2023-07-29T04:50:12;3.28;;;2.72;;
23222;SDS011;11780;13.904;100.620;2023-07-29T04:52:43;3.05;;;2.75;;
23222;SDS011;11780;13.904;100.620;2023-07-29T04:55:13;3.23;;;2.57;;
23222;SDS011;11780;13.904;100.620;2023-07-29T04:57:44;5.35;;;2.70;;
23222;SDS011;11780;13.904;100.620;2023-07-29T05:00:14;3.73;;;2.67;;
23222;SDS011;11780;13.904;100.620;2023-07-29T05:05:15;5.30;;;3.05;;
23222;SDS011;11780;13.904;100.620;2023-07-29T05:07:46;5.25;;;3.42;;
23222;SDS011;11780;13.904;100.620;2023-07-29T05:10:17;8.97;;;3.70;;
23222;SDS011;11780;13.904;100.620;2023-07-29T05:12:49;6.30;;;3.42;;
23222;SDS011;11780;13.904;100.620;2023-07-29T05:15:20;6.77;;;3.53;;
23222;SDS011;11780;13.904;100.620;2023-07-29T05:17:51;6.57;;;3.22;;
23222;SDS011;11780;13.904;100.620;2023-07-29T05:20:21;5.20;;;2.95;;
23222;SDS011;11780;13.904;100.620;2023-07-29T05:22:52;5.13;;;2.87;;
23222;SDS011;11780;13.904;100.620;2023-07-29T05:25:22;7.23;;;3.53;;
23222;SDS011;11780;13.904;100.620;2023-07-29T05:27:53;21.80;;;10.32;;
23222;SDS011;11780;13.904;100.620;2023-07-29T05:30:23;14.15;;;7.13;;
23222;SDS011;11780;13.904;100.620;2023-07-29T05:32:54;8.63;;;4.63;;
23222;SDS011;11780;13.904;100.620;2023-07-29T05:35:24;10.32;;;4.60;;
23222;SDS011;11780;13.904;100.620;2023-07-29T05:37:55;6.40;;;3.63;;
23222;SDS011;11780;13.904;100.620;2023-07-29T05:40:26;7.43;;;3.63;;
23222;SDS011;11780;13.904;100.620;2023-07-29T05:42:56;6.72;;;3.30;;
23222;SDS011;11780;13.904;100.620;2023-07-29T05:45:27;5.57;;;3.50;;
23222;SDS011;11780;13.904;100.620;2023-07-29T05:47:58;3.92;;;3.08;;
23222;SDS011;11780;13.904;100.620;2023-07-29T05:50:28;5.23;;;2.80;;
23222;SDS011;11780;13.904;100.620;2023-07-29T05:53:00;4.25;;;2.80;;
23222;SDS011;11780;13.904;100.620;2023-07-29T05:55:30;4.77;;;3.33;;
23222;SDS011;11780;13.904;100.620;2023-07-29T05:58:01;5.68;;;3.10;;
23222;SDS011;11780;13.904;100.620;2023-07-29T06:00:32;6.00;;;3.20;;
23222;SDS011;11780;13.904;100.620;2023-07-29T06:03:02;5.03;;;3.10;;
23222;SDS011;11780;13.904;100.620;2023-07-29T06:05:33;6.47;;;3.10;;
23222;SDS011;11780;13.904;100.620;2023-07-29T06:08:03;5.60;;;2.83;;
23222;SDS011;11780;13.904;100.620;2023-07-29T06:10:34;4.80;;;2.38;;
23222;SDS011;11780;13.904;100.620;2023-07-29T06:13:05;6.63;;;2.60;;
23222;SDS011;11780;13.904;100.620;2023-07-29T06:15:35;4.63;;;2.10;;
23222;SDS011;11780;13.904;100.620;2023-07-29T06:20:40;4.00;;;2.10;;
23222;SDS011;11780;13.904;100.620;2023-07-29T06:23:11;3.43;;;2.13;;
23222;SDS011;11780;13.904;100.620;2023-07-29T06:25:42;4.28;;;2.50;;
23222;SDS011;11780;13.904;100.620;2023-07-29T06:28:13;4.47;;;2.60;;
23222;SDS011;11780;13.904;100.620;2023-07-29T06:30:43;4.28;;;1.92;;
23222;SDS011;11780;13.904;100.620;2023-07-29T06:33:14;4.55;;;1.80;;
23222;SDS011;11780;13.904;100.620;2023-07-29T06:35:45;6.97;;;2.53;;
23222;SDS011;11780;13.904;100.620;2023-07-29T06:38:15;4.97;;;2.13;;
23222;SDS011;11780;13.904;100.620;2023-07-29T06:40:50;4.85;;;2.40;;
23222;SDS011;11780;13.904;100.620;2023-07-29T06:43:22;2.63;;;2.08;;
23222;SDS011;11780;13.904;100.620;2023-07-29T06:45:53;4.50;;;2.55;;
23222;SDS011;11780;13.904;100.620;2023-07-29T06:48:24;4.75;;;2.47;;
23222;SDS011;11780;13.904;100.620;2023-07-29T06:50:55;4.53;;;2.60;;
23222;SDS011;11780;13.904;100.620;2023-07-29T06:53:29;4.97;;;2.30;;
23222;SDS011;11780;13.904;100.620;2023-07-29T06:56:01;4.60;;;2.53;;
23222;SDS011;11780;13.904;100.620;2023-07-29T06:58:31;5.60;;;2.90;;
23222;SDS011;11780;13.904;100.620;2023-07-29T07:01:01;7.18;;;2.72;;
23222;SDS011;11780;13.904;100.620;2023-07-29T07:03:33;6.65;;;3.03;;
23222;SDS011;11780;13.904;100.620;2023-07-29T07:06:04;5.43;;;2.63;;
23222;SDS011;11780;13.904;100.620;2023-07-29T07:08:35;4.90;;;2.65;;
23222;SDS011;11780;13.904;100.620;2023-07-29T07:11:05;8.97;;;2.80;;
23222;SDS011;11780;13.904;100.620;2023-07-29T07:13:36;4.22;;;2.25;;
23222;SDS011;11780;13.904;100.620;2023-07-29T07:16:06;4.43;;;2.30;;
23222;SDS011;11780;13.904;100.620;2023-07-29T07:18:37;5.00;;;2.47;;
23222;SDS011;11780;13.904;100.620;2023-07-29T07:21:07;5.67;;;2.40;;
23222;SDS011;11780;13.904;100.620;2023-07-29T07:23:38;4.57;;;1.97;;
23222;SDS011;11780;13.904;100.620;2023-07-29T07:26:09;3.58;;;2.25;;
23222;SDS011;11780;13.904;100.620;2023-07-29T07:28:40;4.78;;;1.80;;
23222;SDS011;11780;13.904;100.620;2023-07-29T07:31:11;4.23;;;2.57;;
23222;SDS011;11780;13.904;100.620;2023-07-29T07:33:44;4.35;;;2.30;;
23222;SDS011;11780;13.904;100.620;2023-07-29T07:36:15;5.78;;;1.92;;
23222;SDS011;11780;13.904;100.620;2023-07-29T07:38:45;4.03;;;1.92;;
23222;SDS011;11780;13.904;100.620;2023-07-29T07:41:16;2.20;;;2.00;;
23222;SDS011;11780;13.904;100.620;2023-07-29T07:43:46;4.80;;;2.53;;
23222;SDS011;11780;13.904;100.620;2023-07-29T07:46:16;3.33;;;2.37;;
23222;SDS011;11780;13.904;100.620;2023-07-29T07:48:47;3.80;;;2.00;;
23222;SDS011;11780;13.904;100.620;2023-07-29T07:51:18;3.95;;;1.80;;
23222;SDS011;11780;13.904;100.620;2023-07-29T07:53:49;3.40;;;2.13;;
23222;SDS011;11780;13.904;100.620;2023-07-29T07:56:19;5.22;;;2.10;;
23222;SDS011;11780;13.904;100.620;2023-07-29T07:58:50;3.83;;;2.20;;
23222;SDS011;11780;13.904;100.620;2023-07-29T08:01:20;2.90;;;2.10;;
23222;SDS011;11780;13.904;100.620;2023-07-29T08:19:19;4.78;;;2.85;;
23222;SDS011;11780;13.904;100.620;2023-07-29T08:21:52;3.95;;;1.83;;
23222;SDS011;11780;13.904;100.620;2023-07-29T08:24:27;3.80;;;2.33;;
23222;SDS011;11780;13.904;100.620;2023-07-29T08:27:11;7.25;;;2.33;;
23222;SDS011;11780;13.904;100.620;2023-07-29T08:29:44;2.70;;;2.40;;
23222;SDS011;11780;13.904;100.620;2023-07-29T08:32:17;4.50;;;2.35;;
23222;SDS011;11780;13.904;100.620;2023-07-29T08:34:50;4.88;;;1.98;;
23222;SDS011;11780;13.904;100.620;2023-07-29T08:37:23;4.75;;;2.35;;
23222;SDS011;11780;13.904;100.620;2023-07-29T08:39:59;4.40;;;2.40;;
23222;SDS011;11780;13.904;100.620;2023-07-29T08:42:31;6.35;;;2.20;;
23222;SDS011;11780;13.904;100.620;2023-07-29T08:45:08;3.67;;;2.13;;
23222;SDS011;11780;13.904;100.620;2023-07-29T08:47:42;4.00;;;2.33;;
23222;SDS011;11780;13.904;100.620;2023-07-29T08:50:16;3.88;;;1.80;;
23222;SDS011;11780;13.904;100.620;2023-07-29T08:52:49;3.42;;;2.00;;
23222;SDS011;11780;13.904;100.620;2023-07-29T08:55:25;4.68;;;2.20;;
23222;SDS011;11780;13.904;100.620;2023-07-29T08:58:01;3.15;;;2.20;;
23222;SDS011;11780;13.904;100.620;2023-07-29T09:00:35;3.30;;;2.10;;
23222;SDS011;11780;13.904;100.620;2023-07-29T09:03:08;5.05;;;2.13;;
23222;SDS011;11780;13.904;100.620;2023-07-29T09:05:41;3.80;;;2.00;;
23222;SDS011;11780;13.904;100.620;2023-07-29T09:08:15;3.80;;;2.25;;
23222;SDS011;11780;13.904;100.620;2023-07-29T09:10:47;6.85;;;2.38;;
23222;SDS011;11780;13.904;100.620;2023-07-29T09:13:20;2.92;;;2.53;;
23222;SDS011;11780;13.904;100.620;2023-07-29T09:15:57;3.35;;;2.63;;
23222;SDS011;11780;13.904;100.620;2023-07-29T09:18:30;3.75;;;2.33;;
23222;SDS011;11780;13.904;100.620;2023-07-29T09:21:03;3.58;;;2.30;;
23222;SDS011;11780;13.904;100.620;2023-07-29T09:23:44;4.95;;;2.92;;
23222;SDS011;11780;13.904;100.620;2023-07-29T09:26:14;4.35;;;2.70;;
23222;SDS011;11780;13.904;100.620;2023-07-29T09:28:54;6.15;;;2.63;;
23222;SDS011;11780;13.904;100.620;2023-07-29T09:31:25;5.15;;;2.40;;
23222;SDS011;11780;13.904;100.620;2023-07-29T09:34:03;5.15;;;2.58;;
23222;SDS011;11780;13.904;100.620;2023-07-29T09:36:35;4.45;;;2.60;;
23222;SDS011;11780;13.904;100.620;2023-07-29T09:39:10;3.70;;;2.65;;
23222;SDS011;11780;13.904;100.620;2023-07-29T09:41:46;6.53;;;2.80;;
23222;SDS011;11780;13.904;100.620;2023-07-29T09:44:18;7.40;;;3.38;;
23222;SDS011;11780;13.904;100.620;2023-07-29T09:46:49;5.75;;;3.08;;
23222;SDS011;11780;13.904;100.620;2023-07-29T09:49:20;5.93;;;2.70;;
23222;SDS011;11780;13.904;100.620;2023-07-29T09:51:55;8.85;;;3.13;;
23222;SDS011;11780;13.904;100.620;2023-07-29T09:54:25;7.65;;;3.05;;
23222;SDS011;11780;13.904;100.620;2023-07-29T09:56:56;4.27;;;3.00;;
23222;SDS011;11780;13.904;100.620;2023-07-29T09:59:26;3.83;;;2.45;;
23222;SDS011;11780;13.904;100.620;2023-07-29T10:01:57;5.57;;;3.10;;
23222;SDS011;11780;13.904;100.620;2023-07-29T10:04:28;3.00;;;2.55;;
23222;SDS011;11780;13.904;100.620;2023-07-29T10:06:59;4.55;;;2.72;;
23222;SDS011;11780;13.904;100.620;2023-07-29T10:09:31;3.95;;;2.67;;
23222;SDS011;11780;13.904;100.620;2023-07-29T10:12:02;5.60;;;2.90;;
23222;SDS011;11780;13.904;100.620;2023-07-29T10:14:36;3.20;;;2.47;;
23222;SDS011;11780;13.904;100.620;2023-07-29T10:17:08;4.95;;;3.15;;
23222;SDS011;11780;13.904;100.620;2023-07-29T10:19:38;4.17;;;2.67;;
23222;SDS011;11780;13.904;100.620;2023-07-29T10:24:40;5.85;;;3.05;;
23222;SDS011;11780;13.904;100.620;2023-07-29T10:27:13;21.63;;;4.05;;
23222;SDS011;11780;13.904;100.620;2023-07-29T10:29:47;8.93;;;3.70;;
23222;SDS011;11780;13.904;100.620;2023-07-29T10:32:19;10.27;;;3.63;;
23222;SDS011;11780;13.904;100.620;2023-07-29T10:34:54;9.32;;;2.90;;
23222;SDS011;11780;13.904;100.620;2023-07-29T10:37:24;6.50;;;3.23;;
23222;SDS011;11780;13.904;100.620;2023-07-29T10:39:55;9.05;;;3.25;;
23222;SDS011;11780;13.904;100.620;2023-07-29T10:42:26;8.35;;;3.28;;
23222;SDS011;11780;13.904;100.620;2023-07-29T10:44:57;6.75;;;3.30;;
23222;SDS011;11780;13.904;100.620;2023-07-29T10:47:28;6.45;;;3.72;;
23222;SDS011;11780;13.904;100.620;2023-07-29T10:49:59;9.30;;;4.28;;
23222;SDS011;11780;13.904;100.620;2023-07-29T10:52:31;11.90;;;4.97;;
23222;SDS011;11780;13.904;100.620;2023-07-29T10:55:02;8.82;;;3.90;;
23222;SDS011;11780;13.904;100.620;2023-07-29T10:57:34;9.02;;;4.13;;
23222;SDS011;11780;13.904;100.620;2023-07-29T11:00:05;7.88;;;3.95;;
23222;SDS011;11780;13.904;100.620;2023-07-29T11:02:37;4.00;;;3.55;;
23222;SDS011;11780;13.904;100.620;2023-07-29T11:07:48;6.78;;;3.30;;
23222;SDS011;11780;13.904;100.620;2023-07-29T11:10:19;3.97;;;3.00;;
23222;SDS011;11780;13.904;100.620;2023-07-29T11:12:51;6.03;;;3.88;;
23222;SDS011;11780;13.904;100.620;2023-07-29T11:15:27;7.07;;;3.58;;
23222;SDS011;11780;13.904;100.620;2023-07-29T11:17:59;7.22;;;3.97;;
23222;SDS011;11780;13.904;100.620;2023-07-29T11:20:31;8.07;;;4.28;;
23222;SDS011;11780;13.904;100.620;2023-07-29T11:23:02;6.47;;;3.65;;
23222;SDS011;11780;13.904;100.620;2023-07-29T11:25:35;6.75;;;3.78;;
23222;SDS011;11780;13.904;100.620;2023-07-29T11:28:05;7.32;;;3.88;;
23222;SDS011;11780;13.904;100.620;2023-07-29T11:30:38;6.57;;;3.78;;
23222;SDS011;11780;13.904;100.620;2023-07-29T11:33:09;6.85;;;4.20;;
23222;SDS011;11780;13.904;100.620;2023-07-29T11:38:14;7.00;;;3.95;;
23222;SDS011;11780;13.904;100.620;2023-07-29T11:40:59;5.93;;;3.80;;
23222;SDS011;11780;13.904;100.620;2023-07-29T11:43:35;14.48;;;7.18;;
23222;SDS011;11780;13.904;100.620;2023-07-29T11:46:06;62.22;;;28.70;;
23222;SDS011;11780;13.904;100.620;2023-07-29T11:51:07;42.60;;;19.40;;
23222;SDS011;11780;13.904;100.620;2023-07-29T11:53:37;24.67;;;10.57;;
23222;SDS011;11780;13.904;100.620;2023-07-29T11:56:08;14.67;;;6.50;;
23222;SDS011;11780;13.904;100.620;2023-07-29T11:58:38;10.40;;;4.90;;
23222;SDS011;11780;13.904;100.620;2023-07-29T12:01:08;8.90;;;4.53;;
23222;SDS011;11780;13.904;100.620;2023-07-29T12:06:11;7.37;;;4.20;;
23222;SDS011;11780;13.904;100.620;2023-07-29T12:08:41;8.13;;;4.27;;
23222;SDS011;11780;13.904;100.620;2023-07-29T12:11:12;9.50;;;5.28;;
23222;SDS011;11780;13.904;100.620;2023-07-29T12:16:16;7.75;;;4.28;;
23222;SDS011;11780;13.904;100.620;2023-07-29T12:18:50;8.48;;;4.78;;
23222;SDS011;11780;13.904;100.620;2023-07-29T12:21:20;7.03;;;4.47;;
23222;SDS011;11780;13.904;100.620;2023-07-29T12:23:51;4.80;;;3.10;;
23222;SDS011;11780;13.904;100.620;2023-07-29T12:26:29;6.90;;;3.63;;
23222;SDS011;11780;13.904;100.620;2023-07-29T12:28:59;7.13;;;3.92;;
23222;SDS011;11780;13.904;100.620;2023-07-29T12:34:20;6.00;;;3.38;;
23222;SDS011;11780;13.904;100.620;2023-07-29T12:36:51;5.45;;;3.25;;
23222;SDS011;11780;13.904;100.620;2023-07-29T12:39:24;4.75;;;2.70;;
23222;SDS011;11780;13.904;100.620;2023-07-29T12:41:59;7.70;;;3.17;;
23222;SDS011;11780;13.904;100.620;2023-07-29T12:44:32;4.90;;;2.80;;
23222;SDS011;11780;13.904;100.620;2023-07-29T12:47:04;6.63;;;2.97;;
23222;SDS011;11780;13.904;100.620;2023-07-29T12:49:36;7.40;;;3.45;;
23222;SDS011;11780;13.904;100.620;2023-07-29T12:52:06;5.43;;;3.30;;
23222;SDS011;11780;13.904;100.620;2023-07-29T12:54:36;4.70;;;3.17;;
23222;SDS011;11780;13.904;100.620;2023-07-29T12:57:07;4.65;;;3.20;;
23222;SDS011;11780;13.904;100.620;2023-07-29T12:59:38;5.20;;;3.58;;
23222;SDS011;11780;13.904;100.620;2023-07-29T13:02:08;7.93;;;3.63;;
23222;SDS011;11780;13.904;100.620;2023-07-29T13:04:39;5.00;;;3.40;;
23222;SDS011;11780;13.904;100.620;2023-07-29T13:07:09;4.40;;;3.28;;
23222;SDS011;11780;13.904;100.620;2023-07-29T13:09:39;4.75;;;3.17;;
23222;SDS011;11780;13.904;100.620;2023-07-29T13:12:10;7.80;;;3.30;;
23222;SDS011;11780;13.904;100.620;2023-07-29T13:14:40;3.77;;;3.10;;
23222;SDS011;11780;13.904;100.620;2023-07-29T13:17:10;7.45;;;3.60;;
23222;SDS011;11780;13.904;100.620;2023-07-29T13:19:41;5.63;;;3.57;;
23222;SDS011;11780;13.904;100.620;2023-07-29T13:22:11;5.85;;;3.28;;
23222;SDS011;11780;13.904;100.620;2023-07-29T13:24:41;6.13;;;3.72;;
23222;SDS011;11780;13.904;100.620;2023-07-29T13:27:12;5.68;;;3.63;;
23222;SDS011;11780;13.904;100.620;2023-07-29T13:29:42;6.87;;;3.83;;
23222;SDS011;11780;13.904;100.620;2023-07-29T13:32:16;5.25;;;3.95;;
23222;SDS011;11780;13.904;100.620;2023-07-29T13:34:46;5.30;;;4.10;;
23222;SDS011;11780;13.904;100.620;2023-07-29T13:37:17;5.43;;;3.83;;
23222;SDS011;11780;13.904;100.620;2023-07-29T13:39:48;6.40;;;4.45;;
23222;SDS011;11780;13.904;100.620;2023-07-29T13:42:18;6.90;;;3.92;;
23222;SDS011;11780;13.904;100.620;2023-07-29T13:44:48;5.77;;;3.80;;
23222;SDS011;11780;13.904;100.620;2023-07-29T13:47:19;4.78;;;3.55;;
23222;SDS011;11780;13.904;100.620;2023-07-29T13:49:49;6.17;;;3.87;;
23222;SDS011;11780;13.904;100.620;2023-07-29T13:52:20;5.50;;;3.70;;
23222;SDS011;11780;13.904;100.620;2023-07-29T13:54:50;4.20;;;3.65;;
23222;SDS011;11780;13.904;100.620;2023-07-29T13:57:20;6.73;;;4.37;;
23222;SDS011;11780;13.904;100.620;2023-07-29T13:59:51;4.72;;;3.55;;
23222;SDS011;11780;13.904;100.620;2023-07-29T14:02:22;5.93;;;4.63;;
23222;SDS011;11780;13.904;100.620;2023-07-29T14:06:00;6.07;;;4.18;;
23222;SDS011;11780;13.904;100.620;2023-07-29T14:08:30;6.13;;;4.47;;
23222;SDS011;11780;13.904;100.620;2023-07-29T14:11:01;4.77;;;4.00;;
23222;SDS011;11780;13.904;100.620;2023-07-29T14:13:31;6.67;;;4.27;;
23222;SDS011;11780;13.904;100.620;2023-07-29T14:16:02;5.60;;;4.17;;
23222;SDS011;11780;13.904;100.620;2023-07-29T14:18:32;17.00;;;9.77;;
23222;SDS011;11780;13.904;100.620;2023-07-29T14:21:03;11.73;;;7.18;;
23222;SDS011;11780;13.904;100.620;2023-07-29T14:23:33;17.60;;;7.93;;
23222;SDS011;11780;13.904;100.620;2023-07-29T14:26:04;14.35;;;6.80;;
23222;SDS011;11780;13.904;100.620;2023-07-29T14:28:35;9.43;;;6.10;;
23222;SDS011;11780;13.904;100.620;2023-07-29T14:31:05;9.48;;;5.80;;
23222;SDS011;11780;13.904;100.620;2023-07-29T14:33:36;7.65;;;5.38;;
23222;SDS011;11780;13.904;100.620;2023-07-29T14:36:07;6.50;;;5.03;;
23222;SDS011;11780;13.904;100.620;2023-07-29T14:38:37;8.50;;;5.40;;
23222;SDS011;11780;13.904;100.620;2023-07-29T14:41:08;8.48;;;4.72;;
23222;SDS011;11780;13.904;100.620;2023-07-29T14:43:38;7.03;;;4.55;;
23222;SDS011;11780;13.904;100.620;2023-07-29T14:46:09;7.35;;;4.72;;
23222;SDS011;11780;13.904;100.620;2023-07-29T14:48:39;8.03;;;4.60;;
23222;SDS011;11780;13.904;100.620;2023-07-29T14:51:09;4.30;;;3.90;;
23222;SDS011;11780;13.904;100.620;2023-07-29T14:53:40;6.10;;;4.28;;
23222;SDS011;11780;13.904;100.620;2023-07-29T14:56:11;7.70;;;4.30;;
23222;SDS011;11780;13.904;100.620;2023-07-29T14:58:43;7.18;;;4.32;;
23222;SDS011;11780;13.904;100.620;2023-07-29T15:01:14;7.07;;;4.50;;
23222;SDS011;11780;13.904;100.620;2023-07-29T15:03:45;6.13;;;4.10;;
23222;SDS011;11780;13.904;100.620;2023-07-29T15:06:15;6.37;;;4.20;;
23222;SDS011;11780;13.904;100.620;2023-07-29T15:08:46;5.23;;;4.57;;
23222;SDS011;11780;13.904;100.620;2023-07-29T15:11:16;6.32;;;4.40;;
23222;SDS011;11780;13.904;100.620;2023-07-29T15:13:46;6.47;;;4.07;;
23222;SDS011;11780;13.904;100.620;2023-07-29T15:16:17;5.65;;;4.05;;
23222;SDS011;11780;13.904;100.620;2023-07-29T15:18:47;5.63;;;4.00;;
23222;SDS011;11780;13.904;100.620;2023-07-29T15:21:17;5.40;;;4.35;;
23222;SDS011;11780;13.904;100.620;2023-07-29T15:23:48;4.70;;;4.20;;
23222;SDS011;11780;13.904;100.620;2023-07-29T15:26:18;6.50;;;4.50;;
23222;SDS011;11780;13.904;100.620;2023-07-29T15:28:48;6.00;;;4.45;;
23222;SDS011;11780;13.904;100.620;2023-07-29T15:31:19;6.38;;;4.20;;
23222;SDS011;11780;13.904;100.620;2023-07-29T15:33:49;5.93;;;4.37;;
23222;SDS011;11780;13.904;100.620;2023-07-29T15:36:19;5.03;;;3.88;;